sensor_id;sensor_type;location;lat;lon;timestamp;P1;durP1;ratioP1;P2;durP2;ratioP2
77152;SDS011;66124;51.146;17.072;2023-05-14T00:01:03;10.70;;;7.00;;
77152;SDS011;66124;51.146;17.072;2023-05-14T00:03:32;10.30;;;6.60;;
77152;SDS011;66124;51.146;17.072;2023-05-14T00:06:02;11.10;;;6.80;;
77152;SDS011;66124;51.146;17.072;2023-05-14T00:08:32;10.50;;;6.60;;
77152;SDS011;66124;51.146;17.072;2023-05-14T00:11:01;10.10;;;6.80;;
77152;SDS011;66124;51.146;17.072;2023-05-14T00:13:31;9.70;;;6.90;;
77152;SDS011;66124;51.146;17.072;2023-05-14T00:16:00;10.40;;;6.90;;
77152;SDS011;66124;51.146;17.072;2023-05-14T00:18:30;8.60;;;6.00;;
77152;SDS011;66124;51.146;17.072;2023-05-14T00:21:00;9.90;;;6.10;;
77152;SDS011;66124;51.146;17.072;2023-05-14T00:23:30;9.50;;;6.40;;
77152;SDS011;66124;51.146;17.072;2023-05-14T00:25:59;9.10;;;5.70;;
77152;SDS011;66124;51.146;17.072;2023-05-14T00:28:28;9.10;;;6.30;;
77152;SDS011;66124;51.146;17.072;2023-05-14T00:30:57;10.00;;;6.00;;
77152;SDS011;66124;51.146;17.072;2023-05-14T00:33:27;8.30;;;5.70;;
77152;SDS011;66124;51.146;17.072;2023-05-14T00:35:56;11.00;;;6.00;;
77152;SDS011;66124;51.146;17.072;2023-05-14T00:38:26;7.90;;;5.80;;
77152;SDS011;66124;51.146;17.072;2023-05-14T00:40:55;8.80;;;5.60;;
77152;SDS011;66124;51.146;17.072;2023-05-14T00:43:24;7.60;;;5.50;;
77152;SDS011;66124;51.146;17.072;2023-05-14T00:45:54;7.60;;;5.50;;
77152;SDS011;66124;51.146;17.072;2023-05-14T00:48:23;9.20;;;5.60;;
77152;SDS011;66124;51.146;17.072;2023-05-14T00:50:53;9.90;;;7.00;;
77152;SDS011;66124;51.146;17.072;2023-05-14T00:53:22;10.50;;;6.80;;
77152;SDS011;66124;51.146;17.072;2023-05-14T00:55:53;7.70;;;5.00;;
77152;SDS011;66124;51.146;17.072;2023-05-14T00:58:22;10.60;;;6.20;;
77152;SDS011;66124;51.146;17.072;2023-05-14T01:00:52;8.60;;;5.40;;
77152;SDS011;66124;51.146;17.072;2023-05-14T01:10:49;9.10;;;6.20;;
77152;SDS011;66124;51.146;17.072;2023-05-14T01:13:24;8.50;;;5.80;;
77152;SDS011;66124;51.146;17.072;2023-05-14T01:16:00;7.90;;;5.90;;
77152;SDS011;66124;51.146;17.072;2023-05-14T01:18:33;9.30;;;5.40;;
77152;SDS011;66124;51.146;17.072;2023-05-14T01:21:03;7.10;;;5.50;;
77152;SDS011;66124;51.146;17.072;2023-05-14T01:23:44;8.60;;;6.00;;
77152;SDS011;66124;51.146;17.072;2023-05-14T01:26:14;7.80;;;4.90;;
77152;SDS011;66124;51.146;17.072;2023-05-14T01:28:43;9.00;;;5.70;;
77152;SDS011;66124;51.146;17.072;2023-05-14T01:31:15;8.50;;;5.30;;
77152;SDS011;66124;51.146;17.072;2023-05-14T01:33:50;7.80;;;5.30;;
77152;SDS011;66124;51.146;17.072;2023-05-14T01:36:21;6.50;;;5.30;;
77152;SDS011;66124;51.146;17.072;2023-05-14T01:38:50;9.50;;;5.20;;
77152;SDS011;66124;51.146;17.072;2023-05-14T01:41:21;7.40;;;5.10;;
77152;SDS011;66124;51.146;17.072;2023-05-14T01:43:52;7.80;;;5.30;;
77152;SDS011;66124;51.146;17.072;2023-05-14T01:46:21;6.40;;;5.20;;
77152;SDS011;66124;51.146;17.072;2023-05-14T01:48:50;7.90;;;5.80;;
77152;SDS011;66124;51.146;17.072;2023-05-14T01:51:20;7.20;;;5.30;;
77152;SDS011;66124;51.146;17.072;2023-05-14T01:53:49;6.40;;;4.70;;
77152;SDS011;66124;51.146;17.072;2023-05-14T01:56:19;8.30;;;4.70;;
77152;SDS011;66124;51.146;17.072;2023-05-14T01:58:51;6.10;;;4.60;;
77152;SDS011;66124;51.146;17.072;2023-05-14T02:01:21;6.10;;;4.50;;
77152;SDS011;66124;51.146;17.072;2023-05-14T02:03:50;7.80;;;5.20;;
77152;SDS011;66124;51.146;17.072;2023-05-14T02:06:20;6.50;;;4.50;;
77152;SDS011;66124;51.146;17.072;2023-05-14T02:08:49;5.90;;;4.10;;
77152;SDS011;66124;51.146;17.072;2023-05-14T02:11:19;7.00;;;4.40;;
77152;SDS011;66124;51.146;17.072;2023-05-14T02:13:48;5.90;;;4.20;;
77152;SDS011;66124;51.146;17.072;2023-05-14T02:16:17;6.60;;;4.20;;
77152;SDS011;66124;51.146;17.072;2023-05-14T02:18:47;5.30;;;3.70;;
77152;SDS011;66124;51.146;17.072;2023-05-14T02:31:19;6.00;;;4.40;;
77152;SDS011;66124;51.146;17.072;2023-05-14T02:33:49;6.50;;;4.80;;
77152;SDS011;66124;51.146;17.072;2023-05-14T02:36:18;9.00;;;5.60;;
77152;SDS011;66124;51.146;17.072;2023-05-14T02:38:48;7.40;;;5.00;;
77152;SDS011;66124;51.146;17.072;2023-05-14T02:41:17;7.50;;;4.60;;
77152;SDS011;66124;51.146;17.072;2023-05-14T02:43:48;8.10;;;5.00;;
77152;SDS011;66124;51.146;17.072;2023-05-14T02:46:17;6.70;;;5.10;;
77152;SDS011;66124;51.146;17.072;2023-05-14T02:48:46;6.70;;;4.80;;
77152;SDS011;66124;51.146;17.072;2023-05-14T02:51:16;7.20;;;4.60;;
77152;SDS011;66124;51.146;17.072;2023-05-14T02:53:45;7.30;;;4.50;;
77152;SDS011;66124;51.146;17.072;2023-05-14T02:56:15;6.90;;;4.60;;
77152;SDS011;66124;51.146;17.072;2023-05-14T02:58:44;5.30;;;4.70;;
77152;SDS011;66124;51.146;17.072;2023-05-14T03:01:13;8.10;;;5.20;;
77152;SDS011;66124;51.146;17.072;2023-05-14T03:03:43;7.50;;;4.90;;
77152;SDS011;66124;51.146;17.072;2023-05-14T03:06:13;7.60;;;5.30;;
77152;SDS011;66124;51.146;17.072;2023-05-14T03:08:42;7.20;;;5.40;;
77152;SDS011;66124;51.146;17.072;2023-05-14T03:11:11;7.60;;;5.80;;
77152;SDS011;66124;51.146;17.072;2023-05-14T03:13:41;7.70;;;5.70;;
77152;SDS011;66124;51.146;17.072;2023-05-14T03:16:10;9.90;;;5.70;;
77152;SDS011;66124;51.146;17.072;2023-05-14T03:18:39;7.30;;;5.20;;
77152;SDS011;66124;51.146;17.072;2023-05-14T03:21:09;9.70;;;5.60;;
77152;SDS011;66124;51.146;17.072;2023-05-14T03:23:38;9.20;;;6.00;;
77152;SDS011;66124;51.146;17.072;2023-05-14T03:26:08;7.70;;;5.80;;
77152;SDS011;66124;51.146;17.072;2023-05-14T03:28:37;9.60;;;7.20;;
77152;SDS011;66124;51.146;17.072;2023-05-14T03:31:07;8.30;;;6.40;;
77152;SDS011;66124;51.146;17.072;2023-05-14T03:33:36;9.30;;;6.40;;
77152;SDS011;66124;51.146;17.072;2023-05-14T03:36:06;9.00;;;6.40;;
77152;SDS011;66124;51.146;17.072;2023-05-14T03:38:36;11.00;;;6.50;;
77152;SDS011;66124;51.146;17.072;2023-05-14T03:41:05;10.30;;;6.50;;
77152;SDS011;66124;51.146;17.072;2023-05-14T03:57:00;10.20;;;6.90;;
77152;SDS011;66124;51.146;17.072;2023-05-14T03:59:28;8.10;;;6.20;;
77152;SDS011;66124;51.146;17.072;2023-05-14T04:01:55;9.00;;;6.30;;
77152;SDS011;66124;51.146;17.072;2023-05-14T04:04:22;9.20;;;6.50;;
77152;SDS011;66124;51.146;17.072;2023-05-14T04:06:50;11.90;;;6.70;;
77152;SDS011;66124;51.146;17.072;2023-05-14T04:09:17;9.50;;;6.90;;
77152;SDS011;66124;51.146;17.072;2023-05-14T04:11:44;9.70;;;5.90;;
77152;SDS011;66124;51.146;17.072;2023-05-14T04:14:12;9.40;;;7.40;;
77152;SDS011;66124;51.146;17.072;2023-05-14T04:16:39;6.80;;;4.20;;
77152;SDS011;66124;51.146;17.072;2023-05-14T04:30:49;9.00;;;6.70;;
77152;SDS011;66124;51.146;17.072;2023-05-14T04:33:19;11.20;;;6.90;;
77152;SDS011;66124;51.146;17.072;2023-05-14T04:35:48;10.10;;;7.20;;
77152;SDS011;66124;51.146;17.072;2023-05-14T04:38:18;9.40;;;6.40;;
77152;SDS011;66124;51.146;17.072;2023-05-14T04:40:47;9.30;;;6.40;;
77152;SDS011;66124;51.146;17.072;2023-05-14T04:43:18;8.90;;;7.00;;
77152;SDS011;66124;51.146;17.072;2023-05-14T04:45:47;10.90;;;7.70;;
77152;SDS011;66124;51.146;17.072;2023-05-14T04:48:17;10.50;;;6.40;;
77152;SDS011;66124;51.146;17.072;2023-05-14T04:50:46;10.90;;;7.10;;
77152;SDS011;66124;51.146;17.072;2023-05-14T04:53:16;7.30;;;6.40;;
77152;SDS011;66124;51.146;17.072;2023-05-14T04:55:45;10.30;;;6.90;;
77152;SDS011;66124;51.146;17.072;2023-05-14T04:58:14;10.70;;;6.80;;
77152;SDS011;66124;51.146;17.072;2023-05-14T05:00:43;11.90;;;7.00;;
77152;SDS011;66124;51.146;17.072;2023-05-14T05:03:13;10.50;;;6.90;;
77152;SDS011;66124;51.146;17.072;2023-05-14T05:05:42;9.80;;;7.10;;
77152;SDS011;66124;51.146;17.072;2023-05-14T05:08:12;10.70;;;7.20;;
77152;SDS011;66124;51.146;17.072;2023-05-14T05:10:41;11.30;;;7.00;;
77152;SDS011;66124;51.146;17.072;2023-05-14T05:13:10;9.30;;;7.00;;
77152;SDS011;66124;51.146;17.072;2023-05-14T05:15:40;9.90;;;6.50;;
77152;SDS011;66124;51.146;17.072;2023-05-14T05:18:09;7.70;;;5.80;;
77152;SDS011;66124;51.146;17.072;2023-05-14T05:20:39;8.40;;;6.40;;
77152;SDS011;66124;51.146;17.072;2023-05-14T05:23:08;8.30;;;6.10;;
77152;SDS011;66124;51.146;17.072;2023-05-14T05:25:37;8.30;;;6.00;;
77152;SDS011;66124;51.146;17.072;2023-05-14T05:28:07;7.80;;;6.00;;
77152;SDS011;66124;51.146;17.072;2023-05-14T05:30:36;8.20;;;5.70;;
77152;SDS011;66124;51.146;17.072;2023-05-14T05:33:06;7.20;;;6.00;;
77152;SDS011;66124;51.146;17.072;2023-05-14T05:35:35;7.20;;;5.00;;
77152;SDS011;66124;51.146;17.072;2023-05-14T05:38:05;8.30;;;5.50;;
77152;SDS011;66124;51.146;17.072;2023-05-14T05:50:46;7.30;;;5.80;;
77152;SDS011;66124;51.146;17.072;2023-05-14T05:53:17;5.90;;;5.20;;
77152;SDS011;66124;51.146;17.072;2023-05-14T05:55:46;8.70;;;5.80;;
77152;SDS011;66124;51.146;17.072;2023-05-14T05:58:15;8.50;;;5.60;;
77152;SDS011;66124;51.146;17.072;2023-05-14T06:00:45;6.50;;;5.30;;
77152;SDS011;66124;51.146;17.072;2023-05-14T06:03:15;7.60;;;5.70;;
77152;SDS011;66124;51.146;17.072;2023-05-14T06:05:44;8.00;;;5.40;;
77152;SDS011;66124;51.146;17.072;2023-05-14T06:08:13;8.30;;;5.60;;
77152;SDS011;66124;51.146;17.072;2023-05-14T06:10:43;6.40;;;4.70;;
77152;SDS011;66124;51.146;17.072;2023-05-14T06:13:12;6.80;;;5.30;;
77152;SDS011;66124;51.146;17.072;2023-05-14T06:15:41;6.10;;;4.80;;
77152;SDS011;66124;51.146;17.072;2023-05-14T06:18:11;9.00;;;5.50;;
77152;SDS011;66124;51.146;17.072;2023-05-14T06:20:40;5.80;;;4.70;;
77152;SDS011;66124;51.146;17.072;2023-05-14T06:23:09;6.50;;;4.40;;
77152;SDS011;66124;51.146;17.072;2023-05-14T06:25:39;6.80;;;4.60;;
77152;SDS011;66124;51.146;17.072;2023-05-14T06:28:08;6.70;;;4.70;;
77152;SDS011;66124;51.146;17.072;2023-05-14T06:30:38;6.90;;;5.10;;
77152;SDS011;66124;51.146;17.072;2023-05-14T06:33:07;7.90;;;5.00;;
77152;SDS011;66124;51.146;17.072;2023-05-14T06:35:37;7.10;;;4.40;;
77152;SDS011;66124;51.146;17.072;2023-05-14T06:38:06;6.50;;;4.60;;
77152;SDS011;66124;51.146;17.072;2023-05-14T06:40:36;6.70;;;4.80;;
77152;SDS011;66124;51.146;17.072;2023-05-14T06:43:05;4.90;;;4.10;;
77152;SDS011;66124;51.146;17.072;2023-05-14T06:45:34;5.60;;;3.90;;
77152;SDS011;66124;51.146;17.072;2023-05-14T06:48:04;5.10;;;4.20;;
77152;SDS011;66124;51.146;17.072;2023-05-14T06:50:34;5.00;;;4.30;;
77152;SDS011;66124;51.146;17.072;2023-05-14T06:53:03;5.00;;;4.20;;
77152;SDS011;66124;51.146;17.072;2023-05-14T06:55:32;4.80;;;3.80;;
77152;SDS011;66124;51.146;17.072;2023-05-14T06:58:02;5.60;;;3.90;;
77152;SDS011;66124;51.146;17.072;2023-05-14T07:00:32;5.10;;;3.60;;
77152;SDS011;66124;51.146;17.072;2023-05-14T07:10:37;4.30;;;3.00;;
77152;SDS011;66124;51.146;17.072;2023-05-14T07:13:06;4.10;;;2.70;;
77152;SDS011;66124;51.146;17.072;2023-05-14T07:15:36;2.60;;;2.20;;
77152;SDS011;66124;51.146;17.072;2023-05-14T07:18:05;3.20;;;2.40;;
77152;SDS011;66124;51.146;17.072;2023-05-14T07:20:35;4.20;;;2.50;;
77152;SDS011;66124;51.146;17.072;2023-05-14T07:23:06;2.70;;;2.40;;
77152;SDS011;66124;51.146;17.072;2023-05-14T07:25:35;2.30;;;2.00;;
77152;SDS011;66124;51.146;17.072;2023-05-14T07:28:04;3.80;;;1.90;;
77152;SDS011;66124;51.146;17.072;2023-05-14T07:30:34;4.10;;;2.40;;
77152;SDS011;66124;51.146;17.072;2023-05-14T07:33:03;3.50;;;2.10;;
77152;SDS011;66124;51.146;17.072;2023-05-14T07:35:32;4.00;;;2.30;;
77152;SDS011;66124;51.146;17.072;2023-05-14T07:38:02;2.60;;;1.80;;
77152;SDS011;66124;51.146;17.072;2023-05-14T07:40:31;2.70;;;2.10;;
77152;SDS011;66124;51.146;17.072;2023-05-14T07:43:01;2.90;;;1.70;;
77152;SDS011;66124;51.146;17.072;2023-05-14T07:45:30;2.10;;;1.70;;
77152;SDS011;66124;51.146;17.072;2023-05-14T07:47:59;3.20;;;1.40;;
77152;SDS011;66124;51.146;17.072;2023-05-14T07:50:29;2.50;;;1.90;;
77152;SDS011;66124;51.146;17.072;2023-05-14T07:52:58;2.40;;;1.60;;
77152;SDS011;66124;51.146;17.072;2023-05-14T07:55:28;2.00;;;1.40;;
77152;SDS011;66124;51.146;17.072;2023-05-14T07:57:57;1.70;;;1.50;;
77152;SDS011;66124;51.146;17.072;2023-05-14T08:00:27;2.30;;;1.60;;
77152;SDS011;66124;51.146;17.072;2023-05-14T08:02:56;1.90;;;1.80;;
77152;SDS011;66124;51.146;17.072;2023-05-14T08:05:25;1.60;;;1.30;;
77152;SDS011;66124;51.146;17.072;2023-05-14T08:07:55;1.60;;;1.50;;
77152;SDS011;66124;51.146;17.072;2023-05-14T08:10:25;2.20;;;1.40;;
77152;SDS011;66124;51.146;17.072;2023-05-14T08:12:54;1.30;;;1.20;;
77152;SDS011;66124;51.146;17.072;2023-05-14T08:15:24;3.60;;;1.60;;
77152;SDS011;66124;51.146;17.072;2023-05-14T08:17:53;1.60;;;1.10;;
77152;SDS011;66124;51.146;17.072;2023-05-14T08:20:23;0.50;;;0.50;;
77152;SDS011;66124;51.146;17.072;2023-05-14T08:31:09;1.60;;;1.20;;
77152;SDS011;66124;51.146;17.072;2023-05-14T08:33:38;2.00;;;1.30;;
77152;SDS011;66124;51.146;17.072;2023-05-14T08:36:08;2.90;;;1.60;;
77152;SDS011;66124;51.146;17.072;2023-05-14T08:38:38;2.50;;;1.30;;
77152;SDS011;66124;51.146;17.072;2023-05-14T08:41:07;1.10;;;1.10;;
77152;SDS011;66124;51.146;17.072;2023-05-14T08:43:40;1.80;;;1.30;;
77152;SDS011;66124;51.146;17.072;2023-05-14T08:46:23;2.60;;;1.20;;
77152;SDS011;66124;51.146;17.072;2023-05-14T08:48:59;1.60;;;1.00;;
77152;SDS011;66124;51.146;17.072;2023-05-14T08:51:31;1.60;;;1.40;;
77152;SDS011;66124;51.146;17.072;2023-05-14T08:54:02;1.50;;;1.40;;
77152;SDS011;66124;51.146;17.072;2023-05-14T08:56:33;1.10;;;1.10;;
77152;SDS011;66124;51.146;17.072;2023-05-14T08:59:03;1.50;;;0.90;;
77152;SDS011;66124;51.146;17.072;2023-05-14T09:01:32;1.20;;;0.90;;
77152;SDS011;66124;51.146;17.072;2023-05-14T09:04:03;2.20;;;1.00;;
77152;SDS011;66124;51.146;17.072;2023-05-14T09:06:34;1.20;;;0.90;;
77152;SDS011;66124;51.146;17.072;2023-05-14T09:09:04;0.70;;;0.70;;
77152;SDS011;66124;51.146;17.072;2023-05-14T09:11:34;1.40;;;1.00;;
77152;SDS011;66124;51.146;17.072;2023-05-14T09:14:09;1.20;;;0.80;;
77152;SDS011;66124;51.146;17.072;2023-05-14T09:16:39;1.40;;;1.10;;
77152;SDS011;66124;51.146;17.072;2023-05-14T09:19:11;2.00;;;1.20;;
77152;SDS011;66124;51.146;17.072;2023-05-14T09:21:41;1.70;;;1.20;;
77152;SDS011;66124;51.146;17.072;2023-05-14T09:24:18;1.60;;;1.10;;
77152;SDS011;66124;51.146;17.072;2023-05-14T09:26:51;1.50;;;1.00;;
77152;SDS011;66124;51.146;17.072;2023-05-14T09:29:21;1.70;;;1.00;;
77152;SDS011;66124;51.146;17.072;2023-05-14T09:31:52;1.00;;;0.90;;
77152;SDS011;66124;51.146;17.072;2023-05-14T09:34:26;1.00;;;0.90;;
77152;SDS011;66124;51.146;17.072;2023-05-14T09:36:56;1.30;;;1.20;;
77152;SDS011;66124;51.146;17.072;2023-05-14T09:39:27;2.10;;;1.10;;
77152;SDS011;66124;51.146;17.072;2023-05-14T09:49:48;1.40;;;1.20;;
77152;SDS011;66124;51.146;17.072;2023-05-14T09:52:18;1.50;;;1.10;;
77152;SDS011;66124;51.146;17.072;2023-05-14T09:54:50;1.30;;;1.10;;
77152;SDS011;66124;51.146;17.072;2023-05-14T09:57:20;1.20;;;1.00;;
77152;SDS011;66124;51.146;17.072;2023-05-14T09:59:49;1.60;;;1.10;;
77152;SDS011;66124;51.146;17.072;2023-05-14T10:02:21;1.30;;;1.20;;
77152;SDS011;66124;51.146;17.072;2023-05-14T10:04:52;1.70;;;0.90;;
77152;SDS011;66124;51.146;17.072;2023-05-14T10:07:25;1.20;;;1.00;;
77152;SDS011;66124;51.146;17.072;2023-05-14T10:09:58;1.00;;;0.80;;
77152;SDS011;66124;51.146;17.072;2023-05-14T10:12:31;2.60;;;1.20;;
77152;SDS011;66124;51.146;17.072;2023-05-14T10:15:05;2.10;;;1.20;;
77152;SDS011;66124;51.146;17.072;2023-05-14T10:17:39;2.80;;;1.10;;
77152;SDS011;66124;51.146;17.072;2023-05-14T10:20:15;1.60;;;1.20;;
77152;SDS011;66124;51.146;17.072;2023-05-14T10:22:46;1.30;;;1.00;;
77152;SDS011;66124;51.146;17.072;2023-05-14T10:25:16;1.60;;;1.10;;
77152;SDS011;66124;51.146;17.072;2023-05-14T10:27:46;1.70;;;1.60;;
77152;SDS011;66124;51.146;17.072;2023-05-14T10:30:15;1.60;;;1.30;;
77152;SDS011;66124;51.146;17.072;2023-05-14T10:32:47;1.30;;;1.10;;
77152;SDS011;66124;51.146;17.072;2023-05-14T10:35:31;1.40;;;0.80;;
77152;SDS011;66124;51.146;17.072;2023-05-14T10:38:23;1.60;;;1.00;;
77152;SDS011;66124;51.146;17.072;2023-05-14T10:41:01;2.30;;;0.80;;
77152;SDS011;66124;51.146;17.072;2023-05-14T10:43:35;0.80;;;0.80;;
77152;SDS011;66124;51.146;17.072;2023-05-14T10:46:06;1.20;;;1.10;;
77152;SDS011;66124;51.146;17.072;2023-05-14T10:48:38;2.00;;;1.20;;
77152;SDS011;66124;51.146;17.072;2023-05-14T10:51:09;2.00;;;1.10;;
77152;SDS011;66124;51.146;17.072;2023-05-14T10:53:40;1.30;;;0.90;;
77152;SDS011;66124;51.146;17.072;2023-05-14T10:58:39;1.60;;;1.10;;
77152;SDS011;66124;51.146;17.072;2023-05-14T11:01:11;1.80;;;1.40;;
77152;SDS011;66124;51.146;17.072;2023-05-14T11:06:25;1.10;;;0.80;;
77152;SDS011;66124;51.146;17.072;2023-05-14T11:08:56;1.40;;;1.10;;
77152;SDS011;66124;51.146;17.072;2023-05-14T11:13:55;1.00;;;1.00;;
77152;SDS011;66124;51.146;17.072;2023-05-14T11:16:25;1.20;;;1.00;;
77152;SDS011;66124;51.146;17.072;2023-05-14T11:19:01;1.60;;;1.50;;
77152;SDS011;66124;51.146;17.072;2023-05-14T11:21:31;1.20;;;1.10;;
77152;SDS011;66124;51.146;17.072;2023-05-14T11:24:00;1.50;;;1.40;;
77152;SDS011;66124;51.146;17.072;2023-05-14T11:26:31;1.40;;;1.20;;
77152;SDS011;66124;51.146;17.072;2023-05-14T11:29:00;1.40;;;1.00;;
77152;SDS011;66124;51.146;17.072;2023-05-14T11:31:31;2.50;;;1.50;;
77152;SDS011;66124;51.146;17.072;2023-05-14T11:34:00;1.60;;;1.30;;
77152;SDS011;66124;51.146;17.072;2023-05-14T11:36:30;1.30;;;1.20;;
77152;SDS011;66124;51.146;17.072;2023-05-14T11:38:59;1.70;;;1.40;;
77152;SDS011;66124;51.146;17.072;2023-05-14T11:41:28;3.70;;;1.50;;
77152;SDS011;66124;51.146;17.072;2023-05-14T11:43:58;2.20;;;1.40;;
77152;SDS011;66124;51.146;17.072;2023-05-14T11:46:27;1.60;;;1.20;;
77152;SDS011;66124;51.146;17.072;2023-05-14T11:48:57;1.30;;;1.20;;
77152;SDS011;66124;51.146;17.072;2023-05-14T11:51:26;1.40;;;1.30;;
77152;SDS011;66124;51.146;17.072;2023-05-14T11:53:55;1.20;;;1.10;;
77152;SDS011;66124;51.146;17.072;2023-05-14T11:56:25;1.30;;;1.20;;
77152;SDS011;66124;51.146;17.072;2023-05-14T11:58:55;2.00;;;1.10;;
77152;SDS011;66124;51.146;17.072;2023-05-14T12:01:25;1.60;;;1.40;;
77152;SDS011;66124;51.146;17.072;2023-05-14T12:03:54;1.20;;;1.10;;
77152;SDS011;66124;51.146;17.072;2023-05-14T12:06:30;2.00;;;1.20;;
77152;SDS011;66124;51.146;17.072;2023-05-14T12:09:00;2.00;;;1.30;;
77152;SDS011;66124;51.146;17.072;2023-05-14T12:11:31;1.30;;;1.20;;
77152;SDS011;66124;51.146;17.072;2023-05-14T12:14:08;2.00;;;1.50;;
77152;SDS011;66124;51.146;17.072;2023-05-14T12:16:40;4.40;;;1.00;;
77152;SDS011;66124;51.146;17.072;2023-05-14T12:27:05;1.60;;;1.40;;
77152;SDS011;66124;51.146;17.072;2023-05-14T12:29:35;1.30;;;1.10;;
77152;SDS011;66124;51.146;17.072;2023-05-14T12:32:05;1.60;;;1.50;;
77152;SDS011;66124;51.146;17.072;2023-05-14T12:34:34;1.60;;;1.50;;
77152;SDS011;66124;51.146;17.072;2023-05-14T12:37:01;2.30;;;1.50;;
77152;SDS011;66124;51.146;17.072;2023-05-14T12:39:30;2.10;;;1.30;;
77152;SDS011;66124;51.146;17.072;2023-05-14T12:41:59;1.20;;;1.10;;
77152;SDS011;66124;51.146;17.072;2023-05-14T12:44:26;1.30;;;1.20;;
77152;SDS011;66124;51.146;17.072;2023-05-14T12:56:10;1.70;;;1.30;;
77152;SDS011;66124;51.146;17.072;2023-05-14T12:58:40;1.80;;;1.20;;
77152;SDS011;66124;51.146;17.072;2023-05-14T13:01:09;2.90;;;1.80;;
77152;SDS011;66124;51.146;17.072;2023-05-14T13:03:39;2.50;;;2.20;;
77152;SDS011;66124;51.146;17.072;2023-05-14T13:06:08;2.20;;;2.00;;
77152;SDS011;66124;51.146;17.072;2023-05-14T13:08:38;3.80;;;2.20;;
77152;SDS011;66124;51.146;17.072;2023-05-14T13:11:08;2.60;;;2.10;;
77152;SDS011;66124;51.146;17.072;2023-05-14T13:13:37;2.30;;;2.10;;
77152;SDS011;66124;51.146;17.072;2023-05-14T13:16:07;2.10;;;1.90;;
77152;SDS011;66124;51.146;17.072;2023-05-14T13:18:36;3.30;;;2.20;;
77152;SDS011;66124;51.146;17.072;2023-05-14T13:21:06;2.20;;;2.00;;
77152;SDS011;66124;51.146;17.072;2023-05-14T13:23:35;2.40;;;2.10;;
77152;SDS011;66124;51.146;17.072;2023-05-14T13:26:04;3.80;;;2.30;;
77152;SDS011;66124;51.146;17.072;2023-05-14T13:28:34;2.70;;;2.40;;
77152;SDS011;66124;51.146;17.072;2023-05-14T13:31:05;2.60;;;2.30;;
77152;SDS011;66124;51.146;17.072;2023-05-14T13:33:36;2.40;;;2.20;;
77152;SDS011;66124;51.146;17.072;2023-05-14T13:38:36;2.40;;;2.20;;
77152;SDS011;66124;51.146;17.072;2023-05-14T13:41:05;2.30;;;2.10;;
77152;SDS011;66124;51.146;17.072;2023-05-14T13:43:35;4.20;;;2.10;;
77152;SDS011;66124;51.146;17.072;2023-05-14T13:46:04;2.50;;;2.20;;
77152;SDS011;66124;51.146;17.072;2023-05-14T13:48:34;3.40;;;2.20;;
77152;SDS011;66124;51.146;17.072;2023-05-14T13:51:03;3.00;;;2.40;;
77152;SDS011;66124;51.146;17.072;2023-05-14T13:53:33;2.60;;;2.40;;
77152;SDS011;66124;51.146;17.072;2023-05-14T13:56:02;2.90;;;2.70;;
77152;SDS011;66124;51.146;17.072;2023-05-14T13:58:32;2.50;;;2.30;;
77152;SDS011;66124;51.146;17.072;2023-05-14T14:01:02;3.20;;;2.20;;
77152;SDS011;66124;51.146;17.072;2023-05-14T14:03:32;2.60;;;2.40;;
77152;SDS011;66124;51.146;17.072;2023-05-14T14:06:01;2.70;;;1.70;;
77152;SDS011;66124;51.146;17.072;2023-05-14T14:16:05;3.50;;;2.90;;
77152;SDS011;66124;51.146;17.072;2023-05-14T14:18:34;5.00;;;3.20;;
77152;SDS011;66124;51.146;17.072;2023-05-14T14:21:04;3.70;;;2.70;;
77152;SDS011;66124;51.146;17.072;2023-05-14T14:23:33;3.90;;;2.80;;
77152;SDS011;66124;51.146;17.072;2023-05-14T14:26:03;3.90;;;3.30;;
77152;SDS011;66124;51.146;17.072;2023-05-14T14:28:33;4.80;;;3.90;;
77152;SDS011;66124;51.146;17.072;2023-05-14T14:31:02;4.00;;;3.30;;
77152;SDS011;66124;51.146;17.072;2023-05-14T14:33:31;6.10;;;3.40;;
77152;SDS011;66124;51.146;17.072;2023-05-14T14:36:01;3.80;;;3.40;;
77152;SDS011;66124;51.146;17.072;2023-05-14T14:38:31;4.40;;;3.60;;
77152;SDS011;66124;51.146;17.072;2023-05-14T14:41:00;5.20;;;3.40;;
77152;SDS011;66124;51.146;17.072;2023-05-14T14:43:29;6.40;;;4.00;;
77152;SDS011;66124;51.146;17.072;2023-05-14T14:45:59;4.70;;;3.00;;
77152;SDS011;66124;51.146;17.072;2023-05-14T14:48:29;4.10;;;3.60;;
77152;SDS011;66124;51.146;17.072;2023-05-14T14:51:00;4.00;;;3.60;;
77152;SDS011;66124;51.146;17.072;2023-05-14T14:53:29;5.10;;;4.10;;
77152;SDS011;66124;51.146;17.072;2023-05-14T14:55:59;4.00;;;3.50;;
77152;SDS011;66124;51.146;17.072;2023-05-14T14:58:29;4.20;;;3.30;;
77152;SDS011;66124;51.146;17.072;2023-05-14T15:00:58;6.00;;;3.60;;
77152;SDS011;66124;51.146;17.072;2023-05-14T15:03:28;3.70;;;3.10;;
77152;SDS011;66124;51.146;17.072;2023-05-14T15:05:58;4.30;;;3.20;;
77152;SDS011;66124;51.146;17.072;2023-05-14T15:08:27;3.00;;;2.70;;
77152;SDS011;66124;51.146;17.072;2023-05-14T15:10:56;3.40;;;3.10;;
77152;SDS011;66124;51.146;17.072;2023-05-14T15:13:26;3.60;;;3.00;;
77152;SDS011;66124;51.146;17.072;2023-05-14T15:15:56;4.70;;;4.20;;
77152;SDS011;66124;51.146;17.072;2023-05-14T15:18:25;4.40;;;3.50;;
77152;SDS011;66124;51.146;17.072;2023-05-14T15:20:55;4.60;;;3.70;;
77152;SDS011;66124;51.146;17.072;2023-05-14T15:23:24;3.20;;;2.80;;
77152;SDS011;66124;51.146;17.072;2023-05-14T15:25:54;2.50;;;2.30;;
77152;SDS011;66124;51.146;17.072;2023-05-14T15:36:01;6.50;;;4.10;;
77152;SDS011;66124;51.146;17.072;2023-05-14T15:38:32;4.60;;;3.40;;
77152;SDS011;66124;51.146;17.072;2023-05-14T15:41:01;4.70;;;4.00;;
77152;SDS011;66124;51.146;17.072;2023-05-14T15:43:31;4.90;;;3.80;;
77152;SDS011;66124;51.146;17.072;2023-05-14T15:46:00;4.40;;;3.60;;
77152;SDS011;66124;51.146;17.072;2023-05-14T15:48:30;4.30;;;3.80;;
77152;SDS011;66124;51.146;17.072;2023-05-14T15:50:59;5.30;;;4.20;;
77152;SDS011;66124;51.146;17.072;2023-05-14T15:53:28;4.70;;;4.30;;
77152;SDS011;66124;51.146;17.072;2023-05-14T15:55:58;4.40;;;4.00;;
77152;SDS011;66124;51.146;17.072;2023-05-14T15:58:27;5.30;;;3.90;;
77152;SDS011;66124;51.146;17.072;2023-05-14T16:00:57;4.90;;;4.40;;
77152;SDS011;66124;51.146;17.072;2023-05-14T16:03:26;5.50;;;5.00;;
77152;SDS011;66124;51.146;17.072;2023-05-14T16:05:55;7.20;;;5.00;;
77152;SDS011;66124;51.146;17.072;2023-05-14T16:08:25;5.40;;;4.70;;
77152;SDS011;66124;51.146;17.072;2023-05-14T16:10:54;4.70;;;4.20;;
77152;SDS011;66124;51.146;17.072;2023-05-14T16:13:23;5.60;;;4.80;;
77152;SDS011;66124;51.146;17.072;2023-05-14T16:15:53;5.10;;;4.20;;
77152;SDS011;66124;51.146;17.072;2023-05-14T16:18:22;6.80;;;4.90;;
77152;SDS011;66124;51.146;17.072;2023-05-14T16:20:52;6.80;;;4.90;;
77152;SDS011;66124;51.146;17.072;2023-05-14T16:23:21;5.40;;;4.20;;
77152;SDS011;66124;51.146;17.072;2023-05-14T16:25:51;4.40;;;3.90;;
77152;SDS011;66124;51.146;17.072;2023-05-14T16:28:20;4.40;;;3.90;;
77152;SDS011;66124;51.146;17.072;2023-05-14T16:30:50;5.60;;;4.00;;
77152;SDS011;66124;51.146;17.072;2023-05-14T16:33:19;5.70;;;4.00;;
77152;SDS011;66124;51.146;17.072;2023-05-14T16:35:49;4.40;;;4.00;;
77152;SDS011;66124;51.146;17.072;2023-05-14T16:38:19;5.20;;;4.30;;
77152;SDS011;66124;51.146;17.072;2023-05-14T16:40:48;6.30;;;4.90;;
77152;SDS011;66124;51.146;17.072;2023-05-14T16:43:18;4.80;;;4.20;;
77152;SDS011;66124;51.146;17.072;2023-05-14T16:45:47;4.90;;;3.70;;
77152;SDS011;66124;51.146;17.072;2023-05-14T16:56:36;5.00;;;4.50;;